createdAt,value
2023-04-07T00:02:01.518Z,7.60
2023-04-07T00:04:31.407Z,8.23
2023-04-07T00:07:00.333Z,6.95
2023-04-07T00:09:30.764Z,7.53
2023-04-07T00:12:01.415Z,6.53
2023-04-07T00:14:32.798Z,9.53
2023-04-07T00:17:02.773Z,9.28
2023-04-07T00:19:33.815Z,10.68
2023-04-07T00:22:03.443Z,10.08
2023-04-07T00:24:35.012Z,9.68
2023-04-07T00:27:04.172Z,8.78
2023-04-07T00:29:34.230Z,8.00
2023-04-07T00:32:06.254Z,9.10
2023-04-07T00:34:35.514Z,10.55
2023-04-07T00:37:06.490Z,8.78
2023-04-07T00:39:36.898Z,9.23
2023-04-07T00:42:07.187Z,10.03
2023-04-07T00:44:36.039Z,9.85
2023-04-07T00:47:05.257Z,9.65
2023-04-07T00:49:35.168Z,11.57
2023-04-07T00:52:05.215Z,10.50
2023-04-07T00:54:36.678Z,10.55
2023-04-07T00:57:06.133Z,10.72
2023-04-07T00:59:36.263Z,11.35
2023-04-07T01:02:20.278Z,11.20
2023-04-07T01:05:28.308Z,12.88
2023-04-07T01:08:21.749Z,8.18
2023-04-07T01:11:10.332Z,9.83
2023-04-07T01:13:50.206Z,8.75
2023-04-07T01:16:31.405Z,10.90
2023-04-07T01:19:40.437Z,7.70
2023-04-07T01:22:18.062Z,6.37
2023-04-07T01:25:28.900Z,5.40
2023-04-07T01:28:03.801Z,5.53
2023-04-07T01:30:35.082Z,7.70
2023-04-07T01:33:04.633Z,3.80
2023-04-07T01:35:36.050Z,4.95
2023-04-07T01:38:06.022Z,3.62
2023-04-07T01:40:35.952Z,4.03
2023-04-07T01:43:05.229Z,2.80
2023-04-07T01:45:36.195Z,2.33
2023-04-07T01:48:08.828Z,3.55
2023-04-07T01:50:38.735Z,2.77
2023-04-07T01:53:07.792Z,2.55
2023-04-07T01:55:37.081Z,2.90
2023-04-07T01:58:12.063Z,2.33
2023-04-07T02:00:44.938Z,2.08
2023-04-07T02:03:24.505Z,2.05
2023-04-07T02:05:57.126Z,1.95
2023-04-07T02:08:29.180Z,2.80
2023-04-07T02:11:01.152Z,3.15
2023-04-07T02:13:32.632Z,2.35
2023-04-07T02:16:02.505Z,2.20
2023-04-07T02:18:33.986Z,2.02
2023-04-07T02:21:03.491Z,1.98
2023-04-07T02:23:34.859Z,2.22
2023-04-07T02:26:05.227Z,2.02
2023-04-07T02:28:34.150Z,2.55
2023-04-07T02:31:02.957Z,1.67
2023-04-07T02:33:34.825Z,1.77
2023-04-07T02:36:04.423Z,2.20
2023-04-07T02:38:33.817Z,2.20
2023-04-07T02:41:03.131Z,2.77
2023-04-07T02:43:32.621Z,2.42
2023-04-07T02:46:02.810Z,1.90
2023-04-07T02:48:33.692Z,2.52
2023-04-07T02:51:02.907Z,3.58
2023-04-07T02:53:33.515Z,3.45
2023-04-07T02:56:02.819Z,2.10
2023-04-07T02:58:32.137Z,2.52
2023-04-07T03:01:01.147Z,2.25
2023-04-07T03:03:33.017Z,3.22
2023-04-07T03:06:10.798Z,2.25
2023-04-07T03:08:42.444Z,2.77
2023-04-07T03:11:13.173Z,3.00
2023-04-07T03:13:42.876Z,2.92
2023-04-07T03:16:13.816Z,3.62
2023-04-07T03:18:46.071Z,3.17
2023-04-07T03:21:15.758Z,3.75
2023-04-07T03:23:46.420Z,3.62
2023-04-07T03:26:17.473Z,2.83
2023-04-07T03:28:46.550Z,3.33
2023-04-07T03:31:16.718Z,2.65
2023-04-07T03:33:46.404Z,2.40
2023-04-07T03:36:18.321Z,3.95
2023-04-07T03:38:47.975Z,3.00
2023-04-07T03:41:17.807Z,2.72
2023-04-07T03:43:47.127Z,2.58
2023-04-07T03:46:16.769Z,2.12
2023-04-07T03:48:47.307Z,4.50
2023-04-07T03:51:17.658Z,3.60
2023-04-07T03:53:48.661Z,3.60
2023-04-07T03:56:25.673Z,4.10
2023-04-07T03:58:57.592Z,3.62
2023-04-07T04:01:29.212Z,4.53
2023-04-07T04:03:59.149Z,3.50
2023-04-07T04:06:31.290Z,3.12
2023-04-07T04:09:02.160Z,4.17
2023-04-07T04:11:33.689Z,3.77
2023-04-07T04:14:06.876Z,3.08
2023-04-07T04:16:37.942Z,2.72
2023-04-07T04:19:08.654Z,2.10
2023-04-07T04:21:39.349Z,2.45
2023-04-07T04:24:09.424Z,2.47
2023-04-07T04:26:39.328Z,4.78
2023-04-07T04:29:10.982Z,2.42
2023-04-07T04:31:42.108Z,3.15
2023-04-07T04:34:13.067Z,3.65
2023-04-07T04:36:45.095Z,5.92
2023-04-07T04:39:14.676Z,2.95
2023-04-07T04:41:45.382Z,3.75
2023-04-07T04:44:14.696Z,4.67
2023-04-07T04:46:45.191Z,4.22
2023-04-07T04:49:15.752Z,2.83
2023-04-07T04:51:46.409Z,4.35
2023-04-07T04:54:18.455Z,4.12
2023-04-07T04:56:48.231Z,3.95
2023-04-07T04:59:19.497Z,3.20
2023-04-07T05:01:56.558Z,3.50
2023-04-07T05:04:26.070Z,5.42
2023-04-07T05:06:56.985Z,4.50
2023-04-07T05:09:29.823Z,4.08
2023-04-07T05:12:01.365Z,5.72
2023-04-07T05:14:32.321Z,4.12
2023-04-07T05:17:05.329Z,3.33
2023-04-07T05:19:35.215Z,3.52
2023-04-07T05:22:06.689Z,4.50
2023-04-07T05:24:39.156Z,5.03
2023-04-07T05:27:08.376Z,4.28
2023-04-07T05:29:37.572Z,4.28
2023-04-07T05:32:08.541Z,4.15
2023-04-07T05:34:40.216Z,4.15
2023-04-07T05:37:09.780Z,5.65
2023-04-07T05:39:40.833Z,12.28
2023-04-07T05:42:11.119Z,3.47
2023-04-07T05:44:43.150Z,7.55
2023-04-07T05:47:12.798Z,10.48
2023-04-07T05:49:46.539Z,10.65
2023-04-07T05:52:16.694Z,3.92
2023-04-07T05:54:48.527Z,3.95
2023-04-07T05:57:18.806Z,4.55
2023-04-07T05:59:49.877Z,6.58
2023-04-07T06:02:19.512Z,9.15
2023-04-07T06:04:50.492Z,6.75
2023-04-07T06:07:20.258Z,10.58
2023-04-07T06:09:49.635Z,5.83
2023-04-07T06:12:18.609Z,6.55
2023-04-07T06:14:52.942Z,6.90
2023-04-07T06:17:25.209Z,6.37
2023-04-07T06:19:54.331Z,7.25
2023-04-07T06:22:23.481Z,5.40
2023-04-07T06:24:53.947Z,7.35
2023-04-07T06:27:23.228Z,6.12
2023-04-07T06:29:52.553Z,13.08
2023-04-07T06:32:22.459Z,4.37
2023-04-07T06:34:52.361Z,6.40
2023-04-07T06:37:25.348Z,4.17
2023-04-07T06:39:55.526Z,10.05
2023-04-07T06:42:25.809Z,7.25
2023-04-07T06:44:57.099Z,4.80
2023-04-07T06:47:27.203Z,8.73
2023-04-07T06:49:57.755Z,10.85
2023-04-07T06:52:26.634Z,5.75
2023-04-07T06:54:56.711Z,8.45
2023-04-07T06:57:26.360Z,12.05
2023-04-07T06:59:56.471Z,6.53
2023-04-07T07:02:26.634Z,6.47
2023-04-07T07:04:56.259Z,7.53
2023-04-07T07:07:25.999Z,4.15
2023-04-07T07:09:55.296Z,4.40
2023-04-07T07:12:24.594Z,4.75
2023-04-07T07:14:54.908Z,5.47
2023-04-07T07:17:24.125Z,4.97
2023-04-07T07:19:54.847Z,6.53
2023-04-07T07:22:23.984Z,6.03
2023-04-07T07:24:55.523Z,5.20
2023-04-07T07:27:24.691Z,7.92
2023-04-07T07:29:53.506Z,6.53
2023-04-07T07:32:22.444Z,4.42
2023-04-07T07:34:51.344Z,7.55
2023-04-07T07:37:20.282Z,4.45
2023-04-07T07:39:49.499Z,9.15
2023-04-07T07:42:19.503Z,9.68
2023-04-07T07:44:49.083Z,7.50
2023-04-07T07:47:18.724Z,5.12
2023-04-07T07:49:47.785Z,8.33
2023-04-07T07:52:17.880Z,8.33
2023-04-07T07:54:47.779Z,5.10
2023-04-07T07:57:17.037Z,4.90
2023-04-07T07:59:46.421Z,10.85
2023-04-07T08:02:15.847Z,7.20
2023-04-07T08:04:45.101Z,5.62
2023-04-07T08:07:14.136Z,7.50
2023-04-07T08:09:43.989Z,6.70
2023-04-07T08:12:13.351Z,3.77
2023-04-07T08:14:42.611Z,5.58
2023-04-07T08:17:12.566Z,7.47
2023-04-07T08:19:44.240Z,4.87
2023-04-07T08:22:13.390Z,3.87
2023-04-07T08:24:42.927Z,8.10
2023-04-07T08:27:12.140Z,4.42
2023-04-07T08:29:43.181Z,4.28
2023-04-07T08:32:12.928Z,4.78
2023-04-07T08:34:42.206Z,4.05
2023-04-07T08:37:12.250Z,7.12
2023-04-07T08:39:42.019Z,7.12
2023-04-07T08:42:11.478Z,7.17
2023-04-07T08:44:40.881Z,5.97
2023-04-07T08:47:11.492Z,7.42
2023-04-07T08:49:40.674Z,5.70
2023-04-07T08:52:12.364Z,6.03
2023-04-07T08:54:42.146Z,7.83
2023-04-07T08:57:11.569Z,5.00
2023-04-07T08:59:43.913Z,4.37
2023-04-07T09:02:13.162Z,4.42
2023-04-07T09:04:45.874Z,5.95
2023-04-07T09:07:15.512Z,6.55
2023-04-07T09:09:45.723Z,8.90
2023-04-07T09:12:15.493Z,4.85
2023-04-07T09:14:44.632Z,7.58
2023-04-07T09:17:15.058Z,6.47
2023-04-07T09:19:44.501Z,6.35
2023-04-07T09:22:15.635Z,6.55
2023-04-07T09:24:46.787Z,6.75
2023-04-07T09:27:21.081Z,5.22
2023-04-07T09:29:51.092Z,6.78
2023-04-07T09:32:39.272Z,7.10
2023-04-07T09:35:09.406Z,8.00
2023-04-07T09:37:38.572Z,10.48
2023-04-07T09:40:09.027Z,6.53
2023-04-07T09:42:48.294Z,5.50
2023-04-07T09:45:34.514Z,8.53
2023-04-07T09:47:59.790Z,7.08
2023-04-07T09:50:37.768Z,6.70
2023-04-07T09:53:09.377Z,9.00
2023-04-07T09:55:40.318Z,9.65
2023-04-07T09:58:09.607Z,6.22
2023-04-07T10:00:39.875Z,8.45
2023-04-07T10:03:12.487Z,6.47
2023-04-07T10:28:03.204Z,6.72
2023-04-07T10:30:33.683Z,5.05
2023-04-07T10:33:05.547Z,6.10
2023-04-07T10:36:05.980Z,10.25
2023-04-07T10:38:35.264Z,7.65
2023-04-07T10:41:39.989Z,9.73
2023-04-07T10:44:11.494Z,6.62
2023-04-07T10:46:55.979Z,7.45
2023-04-07T10:49:24.662Z,6.10
2023-04-07T10:52:16.707Z,6.67
2023-04-07T10:54:47.053Z,8.53
2023-04-07T10:57:16.807Z,9.83
2023-04-07T11:00:13.772Z,10.78
2023-04-07T11:02:45.022Z,8.68
2023-04-07T11:05:25.244Z,8.40
2023-04-07T11:07:57.502Z,8.53
2023-04-07T11:10:28.608Z,10.00
2023-04-07T11:13:05.137Z,7.87
2023-04-07T11:15:40.435Z,9.88
2023-04-07T11:18:18.428Z,8.63
2023-04-07T11:20:58.824Z,12.95
2023-04-07T11:23:29.538Z,8.78
2023-04-07T11:26:02.658Z,8.18
2023-04-07T11:28:32.336Z,10.35
2023-04-07T11:31:02.686Z,9.63
2023-04-07T11:33:32.371Z,8.65
2023-04-07T11:36:02.632Z,9.45
2023-04-07T11:38:39.287Z,9.25
2023-04-07T11:41:14.159Z,10.08
2023-04-07T11:43:43.084Z,8.85
2023-04-07T11:46:17.366Z,8.60
2023-04-07T11:48:48.384Z,8.05
2023-04-07T11:51:19.537Z,9.80
2023-04-07T11:53:49.155Z,9.58
2023-04-07T11:56:18.427Z,10.90
2023-04-07T11:58:53.262Z,12.50
2023-04-07T12:01:24.095Z,8.65
2023-04-07T12:03:59.932Z,9.38
2023-04-07T12:06:42.283Z,12.53
2023-04-07T12:09:34.084Z,12.03
2023-04-07T12:12:08.841Z,17.90
2023-04-07T12:14:43.917Z,10.10
2023-04-07T12:17:23.771Z,10.60
2023-04-07T12:19:53.278Z,13.03
2023-04-07T12:22:22.998Z,10.58
2023-04-07T12:24:52.093Z,10.18
2023-04-07T12:27:32.679Z,7.67
2023-04-07T12:29:54.390Z,10.38
2023-04-07T12:32:23.406Z,11.83
2023-04-07T12:34:53.002Z,13.38
2023-04-07T12:37:22.286Z,9.98
2023-04-07T12:39:51.109Z,8.78
2023-04-07T12:42:20.553Z,9.60
2023-04-07T12:44:49.510Z,10.13
2023-04-07T12:47:18.372Z,9.95
2023-04-07T12:49:49.868Z,8.80
2023-04-07T12:52:19.384Z,8.58
2023-04-07T12:54:49.378Z,9.55
2023-04-07T12:57:18.708Z,11.68
2023-04-07T12:59:48.701Z,10.10
2023-04-07T13:02:19.388Z,7.28
2023-04-07T13:04:49.136Z,8.88
2023-04-07T13:07:18.030Z,11.73
2023-04-07T13:09:47.560Z,10.32
2023-04-07T13:12:16.455Z,8.68
2023-04-07T13:14:59.318Z,9.88
2023-04-07T13:17:23.116Z,7.85
2023-04-07T13:19:52.620Z,8.80
2023-04-07T13:22:24.334Z,7.58
2023-04-07T13:24:53.898Z,7.03
2023-04-07T13:27:23.554Z,7.33
2023-04-07T13:29:52.879Z,7.05
2023-04-07T13:32:23.916Z,6.10
2023-04-07T13:34:53.747Z,11.83
2023-04-07T13:37:32.176Z,6.20
2023-04-07T13:40:19.147Z,5.83
2023-04-07T13:42:50.189Z,5.28
2023-04-07T13:45:23.357Z,9.13
2023-04-07T13:47:56.727Z,5.70
2023-04-07T13:50:26.061Z,7.83
2023-04-07T13:52:56.055Z,9.08
2023-04-07T13:55:24.881Z,9.73
2023-04-07T13:57:53.915Z,6.53
2023-04-07T14:00:23.422Z,8.30
2023-04-07T14:02:53.856Z,7.17
2023-04-07T14:05:23.380Z,9.63
2023-04-07T14:07:54.364Z,7.78
2023-04-07T14:10:24.564Z,7.83
2023-04-07T14:12:53.654Z,7.83
2023-04-07T14:15:23.684Z,7.05
2023-04-07T14:17:53.825Z,6.40
2023-04-07T14:20:24.206Z,5.75
2023-04-07T14:22:54.658Z,4.97
2023-04-07T14:25:23.741Z,6.30
2023-04-07T14:27:53.370Z,5.30
2023-04-07T14:30:23.396Z,7.20
2023-04-07T14:32:55.857Z,5.70
2023-04-07T14:35:30.043Z,9.90
2023-04-07T14:37:59.250Z,7.92
2023-04-07T14:40:29.601Z,6.40
2023-04-07T14:45:30.002Z,4.75
2023-04-07T14:48:00.321Z,8.88
2023-04-07T14:50:29.217Z,4.12
2023-04-07T14:52:58.183Z,6.50
2023-04-07T14:55:27.864Z,4.58
2023-04-07T14:57:56.968Z,3.90
2023-04-07T15:00:26.990Z,3.95
2023-04-07T15:02:58.001Z,5.67
2023-04-07T15:05:28.480Z,3.40
2023-04-07T15:07:58.469Z,4.22
2023-04-07T15:10:27.837Z,3.45
2023-04-07T15:12:56.898Z,5.17
2023-04-07T15:15:27.108Z,3.22
2023-04-07T15:17:56.327Z,2.62
2023-04-07T15:20:26.265Z,6.17
2023-04-07T15:22:57.031Z,5.10
2023-04-07T15:25:26.659Z,4.92
2023-04-07T15:27:55.417Z,4.67
2023-04-07T15:30:24.423Z,3.12
2023-04-07T15:33:00.335Z,7.22
2023-04-07T15:35:30.886Z,4.78
2023-04-07T15:38:00.257Z,4.40
2023-04-07T15:40:29.344Z,6.03
2023-04-07T15:42:58.241Z,3.60
2023-04-07T15:45:27.200Z,4.30
2023-04-07T15:47:56.351Z,5.35
2023-04-07T15:50:25.271Z,4.90
2023-04-07T15:52:54.571Z,2.45
2023-04-07T15:55:23.676Z,3.25
2023-04-07T15:57:53.294Z,2.80
2023-04-07T16:00:23.172Z,2.85
2023-04-07T16:02:54.774Z,3.02
2023-04-07T16:05:24.844Z,3.12
2023-04-07T16:07:56.014Z,3.00
2023-04-07T16:10:26.093Z,5.45
2023-04-07T16:12:56.202Z,2.85
2023-04-07T16:15:38.652Z,3.40
2023-04-07T16:17:56.823Z,3.00
2023-04-07T16:20:26.404Z,3.33
2023-04-07T16:22:55.884Z,2.85
2023-04-07T16:25:26.554Z,1.70
2023-04-07T16:27:56.876Z,5.85
2023-04-07T16:30:27.830Z,4.42
2023-04-07T16:32:59.996Z,2.40
2023-04-07T16:35:31.165Z,6.67
2023-04-07T16:38:03.563Z,2.72
2023-04-07T16:40:32.944Z,3.60
2023-04-07T16:43:01.936Z,2.58
2023-04-07T16:45:31.955Z,3.92
2023-04-07T16:48:02.628Z,2.72
2023-04-07T16:50:33.605Z,3.30
2023-04-07T16:53:02.481Z,4.72
2023-04-07T16:55:37.804Z,5.20
2023-04-07T16:58:07.423Z,5.47
2023-04-07T17:00:36.361Z,2.85
2023-04-07T17:03:07.237Z,4.95
2023-04-07T17:05:38.150Z,3.87
2023-04-07T17:08:07.254Z,4.85
2023-04-07T17:10:39.089Z,4.05
2023-04-07T17:13:10.248Z,3.65
2023-04-07T17:15:39.247Z,5.85
2023-04-07T17:18:09.597Z,3.92
2023-04-07T17:20:39.259Z,3.92
2023-04-07T17:23:10.401Z,3.95
2023-04-07T17:25:40.662Z,3.72
2023-04-07T17:28:09.683Z,5.10
2023-04-07T17:30:39.733Z,5.90
2023-04-07T17:33:09.097Z,3.77
2023-04-07T17:35:37.901Z,4.50
2023-04-07T17:38:09.823Z,4.45
2023-04-07T17:40:39.127Z,4.72
2023-04-07T17:43:08.638Z,5.75
2023-04-07T17:45:37.746Z,3.85
2023-04-07T17:48:08.594Z,5.45
2023-04-07T17:50:39.277Z,4.12
2023-04-07T17:53:08.297Z,3.65
2023-04-07T17:55:37.076Z,4.30
2023-04-07T17:58:06.892Z,3.15
2023-04-07T18:00:35.768Z,4.37
2023-04-07T18:03:07.143Z,4.15
2023-04-07T18:05:37.049Z,4.95
2023-04-07T18:08:05.839Z,4.58
2023-04-07T18:10:35.833Z,7.20
2023-04-07T18:13:06.901Z,5.30
2023-04-07T18:15:36.074Z,5.15
2023-04-07T18:18:06.346Z,3.62
2023-04-07T18:20:36.033Z,4.53
2023-04-07T18:23:06.245Z,4.03
2023-04-07T18:25:35.748Z,4.92
2023-04-07T18:28:04.535Z,3.55
2023-04-07T18:30:35.312Z,5.42
2023-04-07T18:33:05.260Z,6.22
2023-04-07T18:35:35.743Z,5.12
2023-04-07T18:38:05.131Z,3.70
2023-04-07T18:40:37.088Z,5.92
2023-04-07T18:43:06.077Z,7.47
2023-04-07T18:45:37.321Z,4.10
2023-04-07T18:48:07.337Z,5.45
2023-04-07T18:50:37.954Z,8.38
2023-04-07T18:53:08.358Z,6.20
2023-04-07T18:55:37.909Z,8.75
2023-04-07T18:58:08.418Z,3.92
2023-04-07T19:00:37.750Z,3.58
2023-04-07T19:03:07.404Z,4.30
2023-04-07T19:05:40.217Z,4.05
2023-04-07T19:08:11.420Z,3.77
2023-04-07T19:10:41.504Z,3.67
2023-04-07T19:13:10.386Z,5.35
2023-04-07T19:15:42.596Z,4.30
2023-04-07T19:18:13.619Z,3.67
2023-04-07T19:20:42.610Z,5.45
2023-04-07T19:23:11.753Z,4.50
2023-04-07T19:25:42.915Z,3.25
2023-04-07T19:28:14.803Z,4.47
2023-04-07T19:30:43.864Z,4.30
2023-04-07T19:33:14.430Z,4.05
2023-04-07T19:35:44.802Z,5.00
2023-04-07T19:38:13.952Z,4.10
2023-04-07T19:40:42.849Z,4.55
2023-04-07T19:43:11.645Z,6.08
2023-04-07T19:45:41.614Z,5.72
2023-04-07T19:48:11.048Z,4.10
2023-04-07T19:50:41.654Z,4.37
2023-04-07T19:53:18.321Z,6.08
2023-04-07T19:55:52.597Z,3.87
2023-04-07T19:58:22.769Z,4.53
2023-04-07T20:00:54.357Z,4.80
2023-04-07T20:03:25.345Z,8.53
2023-04-07T20:05:54.296Z,10.23
2023-04-07T20:08:27.672Z,5.45
2023-04-07T20:10:56.712Z,4.90
2023-04-07T20:13:29.831Z,8.18
2023-04-07T20:15:59.813Z,3.87
2023-04-07T20:18:28.641Z,5.10
2023-04-07T20:21:02.201Z,4.60
2023-04-07T20:23:33.349Z,10.63
2023-04-07T20:26:02.528Z,8.38
2023-04-07T20:28:32.383Z,8.88
2023-04-07T20:31:01.808Z,9.83
2023-04-07T20:33:31.472Z,10.82
2023-04-07T20:36:00.714Z,9.58
2023-04-07T20:38:30.348Z,7.50
2023-04-07T20:41:01.953Z,9.90
2023-04-07T20:43:32.290Z,5.85
2023-04-07T20:46:04.949Z,7.47
2023-04-07T20:48:34.664Z,8.35
2023-04-07T20:51:03.872Z,10.30
2023-04-07T20:53:32.665Z,7.58
2023-04-07T20:56:02.930Z,5.30
2023-04-07T20:58:32.273Z,5.83
2023-04-07T21:01:01.547Z,5.40
2023-04-07T21:03:31.896Z,5.22
2023-04-07T21:06:01.410Z,6.05
2023-04-07T21:08:31.427Z,4.78
2023-04-07T21:11:01.242Z,4.83
2023-04-07T21:13:30.686Z,6.20
2023-04-07T21:16:01.559Z,5.55
2023-04-07T21:18:31.714Z,5.10
2023-04-07T21:21:02.131Z,5.22
2023-04-07T21:23:32.474Z,5.35
2023-04-07T21:26:02.838Z,5.15
2023-04-07T21:28:33.382Z,4.35
2023-04-07T21:31:04.826Z,8.83
2023-04-07T21:33:34.166Z,6.80
2023-04-07T21:36:04.187Z,6.95
2023-04-07T21:38:34.100Z,6.72
2023-04-07T21:41:03.171Z,7.33
2023-04-07T21:43:34.512Z,6.03
2023-04-07T21:46:05.054Z,6.33
2023-04-07T21:48:34.909Z,8.53
2023-04-07T21:51:05.015Z,8.93
2023-04-07T21:53:38.569Z,5.30
2023-04-07T21:56:09.411Z,8.05
2023-04-07T21:58:40.851Z,8.38
2023-04-07T22:01:10.521Z,8.90
2023-04-07T22:03:42.159Z,7.00
2023-04-07T22:06:11.662Z,9.33
2023-04-07T22:08:44.312Z,7.50
2023-04-07T22:11:14.627Z,8.10
2023-04-07T22:13:43.982Z,10.68
2023-04-07T22:16:13.253Z,18.17
2023-04-07T22:18:41.921Z,9.35
2023-04-07T22:21:10.836Z,9.20
2023-04-07T22:23:39.790Z,7.92
2023-04-07T22:26:10.309Z,8.85
2023-04-07T22:28:39.896Z,9.65
2023-04-07T22:31:08.591Z,8.50
2023-04-07T22:33:39.284Z,10.35
2023-04-07T22:36:08.226Z,12.98
2023-04-07T22:38:37.918Z,11.03
2023-04-07T22:41:07.061Z,9.35
2023-04-07T22:43:36.145Z,10.18
2023-04-07T22:46:05.627Z,9.08
2023-04-07T22:48:34.628Z,9.33
2023-04-07T22:51:05.353Z,9.08
2023-04-07T22:53:35.681Z,9.70
2023-04-07T22:56:07.490Z,9.45
2023-04-07T22:58:36.348Z,9.48
2023-04-07T23:01:06.476Z,8.90
2023-04-07T23:03:36.967Z,9.53
2023-04-07T23:06:06.518Z,8.00
2023-04-07T23:08:35.700Z,8.53
2023-04-07T23:11:11.116Z,9.88
2023-04-07T23:13:43.104Z,10.32
2023-04-07T23:16:14.182Z,10.05
2023-04-07T23:18:43.947Z,9.68
2023-04-07T23:21:13.329Z,9.33
2023-04-07T23:23:42.185Z,9.25
2023-04-07T23:26:13.043Z,9.88
2023-04-07T23:28:42.006Z,10.15
2023-04-07T23:31:12.209Z,8.00
2023-04-07T23:33:41.434Z,8.65
2023-04-07T23:36:12.147Z,9.68
2023-04-07T23:38:42.777Z,10.15
2023-04-07T23:41:11.814Z,9.18
2023-04-07T23:43:41.181Z,9.33
2023-04-07T23:46:09.777Z,8.63
2023-04-07T23:48:40.115Z,8.95
2023-04-07T23:51:09.029Z,10.45
2023-04-07T23:53:39.306Z,9.40
2023-04-07T23:56:08.569Z,11.35
2023-04-07T23:58:37.384Z,9.65
